sensor_id;sensor_type;location;lat;lon;timestamp;P1;durP1;ratioP1;P2;durP2;ratioP2
80653;SDS011;70020;45.524;10.240;2024-01-10T00:02:18;12.65;;;6.95;;
80653;SDS011;70020;45.524;10.240;2024-01-10T00:04:44;12.57;;;6.83;;
80653;SDS011;70020;45.524;10.240;2024-01-10T00:07:10;11.35;;;6.65;;
80653;SDS011;70020;45.524;10.240;2024-01-10T00:09:36;12.50;;;6.93;;
80653;SDS011;70020;45.524;10.240;2024-01-10T00:12:02;11.97;;;6.60;;
80653;SDS011;70020;45.524;10.240;2024-01-10T00:14:28;12.33;;;6.73;;
80653;SDS011;70020;45.524;10.240;2024-01-10T00:16:54;12.27;;;6.97;;
80653;SDS011;70020;45.524;10.240;2024-01-10T00:19:20;11.73;;;7.18;;
80653;SDS011;70020;45.524;10.240;2024-01-10T00:21:46;11.23;;;6.40;;
80653;SDS011;70020;45.524;10.240;2024-01-10T00:24:11;11.53;;;6.90;;
80653;SDS011;70020;45.524;10.240;2024-01-10T00:26:38;11.15;;;6.43;;
80653;SDS011;70020;45.524;10.240;2024-01-10T00:29:03;13.67;;;7.67;;
80653;SDS011;70020;45.524;10.240;2024-01-10T00:31:30;10.70;;;6.90;;
80653;SDS011;70020;45.524;10.240;2024-01-10T00:33:56;14.50;;;7.15;;
80653;SDS011;70020;45.524;10.240;2024-01-10T00:36:22;14.68;;;7.53;;
80653;SDS011;70020;45.524;10.240;2024-01-10T00:41:15;12.18;;;7.53;;
80653;SDS011;70020;45.524;10.240;2024-01-10T00:43:41;12.73;;;7.50;;
80653;SDS011;70020;45.524;10.240;2024-01-10T00:46:07;10.05;;;6.75;;
80653;SDS011;70020;45.524;10.240;2024-01-10T00:48:32;10.73;;;6.60;;
80653;SDS011;70020;45.524;10.240;2024-01-10T00:50:59;12.43;;;6.93;;
80653;SDS011;70020;45.524;10.240;2024-01-10T00:53:25;12.07;;;6.90;;
80653;SDS011;70020;45.524;10.240;2024-01-10T00:55:50;12.82;;;7.15;;
80653;SDS011;70020;45.524;10.240;2024-01-10T00:58:17;11.52;;;7.07;;
80653;SDS011;70020;45.524;10.240;2024-01-10T01:03:09;11.73;;;7.00;;
80653;SDS011;70020;45.524;10.240;2024-01-10T01:05:35;12.53;;;7.20;;
80653;SDS011;70020;45.524;10.240;2024-01-10T01:08:01;11.82;;;7.32;;
80653;SDS011;70020;45.524;10.240;2024-01-10T01:10:27;13.15;;;7.38;;
80653;SDS011;70020;45.524;10.240;2024-01-10T01:12:54;12.07;;;7.20;;
80653;SDS011;70020;45.524;10.240;2024-01-10T01:15:20;12.57;;;7.25;;
80653;SDS011;70020;45.524;10.240;2024-01-10T01:17:45;14.47;;;7.83;;
80653;SDS011;70020;45.524;10.240;2024-01-10T01:20:12;13.80;;;7.95;;
80653;SDS011;70020;45.524;10.240;2024-01-10T01:22:38;11.60;;;7.35;;
80653;SDS011;70020;45.524;10.240;2024-01-10T01:25:04;13.47;;;7.27;;
80653;SDS011;70020;45.524;10.240;2024-01-10T01:27:31;12.65;;;7.40;;
80653;SDS011;70020;45.524;10.240;2024-01-10T01:29:57;12.15;;;7.38;;
80653;SDS011;70020;45.524;10.240;2024-01-10T01:32:24;12.23;;;7.60;;
80653;SDS011;70020;45.524;10.240;2024-01-10T01:34:50;11.18;;;7.45;;
80653;SDS011;70020;45.524;10.240;2024-01-10T01:37:16;12.13;;;7.40;;
80653;SDS011;70020;45.524;10.240;2024-01-10T01:39:42;14.77;;;8.10;;
80653;SDS011;70020;45.524;10.240;2024-01-10T01:42:07;12.67;;;7.63;;
80653;SDS011;70020;45.524;10.240;2024-01-10T01:44:33;11.15;;;7.28;;
80653;SDS011;70020;45.524;10.240;2024-01-10T01:46:59;11.87;;;7.10;;
80653;SDS011;70020;45.524;10.240;2024-01-10T01:49:27;11.32;;;7.03;;
80653;SDS011;70020;45.524;10.240;2024-01-10T01:51:54;14.85;;;7.72;;
80653;SDS011;70020;45.524;10.240;2024-01-10T01:56:46;13.32;;;7.80;;
80653;SDS011;70020;45.524;10.240;2024-01-10T01:59:14;12.65;;;7.43;;
80653;SDS011;70020;45.524;10.240;2024-01-10T02:01:40;11.68;;;7.35;;
80653;SDS011;70020;45.524;10.240;2024-01-10T02:04:06;13.43;;;7.90;;
80653;SDS011;70020;45.524;10.240;2024-01-10T02:06:32;11.97;;;7.47;;
80653;SDS011;70020;45.524;10.240;2024-01-10T02:08:57;12.10;;;7.37;;
80653;SDS011;70020;45.524;10.240;2024-01-10T02:11:23;12.70;;;7.83;;
80653;SDS011;70020;45.524;10.240;2024-01-10T02:13:50;13.45;;;8.05;;
80653;SDS011;70020;45.524;10.240;2024-01-10T02:16:16;13.00;;;7.53;;
80653;SDS011;70020;45.524;10.240;2024-01-10T02:18:42;15.15;;;7.85;;
80653;SDS011;70020;45.524;10.240;2024-01-10T02:21:08;12.67;;;7.63;;
80653;SDS011;70020;45.524;10.240;2024-01-10T02:23:34;13.03;;;8.17;;
80653;SDS011;70020;45.524;10.240;2024-01-10T02:26:00;14.73;;;7.82;;
80653;SDS011;70020;45.524;10.240;2024-01-10T02:28:26;13.07;;;7.60;;
80653;SDS011;70020;45.524;10.240;2024-01-10T02:30:52;14.07;;;7.87;;
80653;SDS011;70020;45.524;10.240;2024-01-10T02:33:20;12.63;;;7.78;;
80653;SDS011;70020;45.524;10.240;2024-01-10T02:35:46;12.40;;;7.55;;
80653;SDS011;70020;45.524;10.240;2024-01-10T02:38:12;11.77;;;7.07;;
80653;SDS011;70020;45.524;10.240;2024-01-10T02:40:38;14.70;;;8.00;;
80653;SDS011;70020;45.524;10.240;2024-01-10T02:43:04;11.20;;;7.33;;
80653;SDS011;70020;45.524;10.240;2024-01-10T02:45:29;14.00;;;8.23;;
80653;SDS011;70020;45.524;10.240;2024-01-10T02:47:56;13.85;;;7.93;;
80653;SDS011;70020;45.524;10.240;2024-01-10T02:50:23;13.38;;;7.95;;
80653;SDS011;70020;45.524;10.240;2024-01-10T02:52:49;11.18;;;7.63;;
80653;SDS011;70020;45.524;10.240;2024-01-10T02:55:15;13.30;;;7.90;;
80653;SDS011;70020;45.524;10.240;2024-01-10T02:57:41;15.50;;;8.07;;
80653;SDS011;70020;45.524;10.240;2024-01-10T03:00:13;17.17;;;8.70;;
80653;SDS011;70020;45.524;10.240;2024-01-10T03:02:40;14.88;;;8.18;;
80653;SDS011;70020;45.524;10.240;2024-01-10T03:05:05;14.40;;;7.97;;
80653;SDS011;70020;45.524;10.240;2024-01-10T03:07:32;17.10;;;8.80;;
80653;SDS011;70020;45.524;10.240;2024-01-10T03:09:59;13.50;;;7.35;;
80653;SDS011;70020;45.524;10.240;2024-01-10T03:12:25;13.65;;;8.57;;
80653;SDS011;70020;45.524;10.240;2024-01-10T03:14:51;13.90;;;8.15;;
80653;SDS011;70020;45.524;10.240;2024-01-10T03:17:17;13.93;;;8.82;;
80653;SDS011;70020;45.524;10.240;2024-01-10T03:22:10;16.05;;;8.40;;
80653;SDS011;70020;45.524;10.240;2024-01-10T03:24:37;12.43;;;7.75;;
80653;SDS011;70020;45.524;10.240;2024-01-10T03:27:03;15.40;;;8.20;;
80653;SDS011;70020;45.524;10.240;2024-01-10T03:31:55;16.92;;;8.35;;
80653;SDS011;70020;45.524;10.240;2024-01-10T03:34:21;16.05;;;8.85;;
80653;SDS011;70020;45.524;10.240;2024-01-10T03:36:47;14.50;;;8.13;;
80653;SDS011;70020;45.524;10.240;2024-01-10T03:39:12;16.47;;;9.43;;
80653;SDS011;70020;45.524;10.240;2024-01-10T03:41:38;16.67;;;9.37;;
80653;SDS011;70020;45.524;10.240;2024-01-10T03:44:04;17.55;;;9.50;;
80653;SDS011;70020;45.524;10.240;2024-01-10T03:46:30;16.85;;;9.02;;
80653;SDS011;70020;45.524;10.240;2024-01-10T03:48:57;17.10;;;9.48;;
80653;SDS011;70020;45.524;10.240;2024-01-10T03:51:22;17.43;;;9.30;;
80653;SDS011;70020;45.524;10.240;2024-01-10T03:53:48;16.03;;;9.77;;
80653;SDS011;70020;45.524;10.240;2024-01-10T03:56:14;16.90;;;9.97;;
80653;SDS011;70020;45.524;10.240;2024-01-10T03:58:40;17.70;;;9.73;;
80653;SDS011;70020;45.524;10.240;2024-01-10T04:01:09;18.93;;;10.23;;
80653;SDS011;70020;45.524;10.240;2024-01-10T04:03:35;14.70;;;9.32;;
80653;SDS011;70020;45.524;10.240;2024-01-10T04:06:01;17.85;;;9.95;;
80653;SDS011;70020;45.524;10.240;2024-01-10T04:10:54;16.30;;;9.95;;
80653;SDS011;70020;45.524;10.240;2024-01-10T04:13:19;16.67;;;9.70;;
80653;SDS011;70020;45.524;10.240;2024-01-10T04:15:45;15.90;;;9.87;;
80653;SDS011;70020;45.524;10.240;2024-01-10T04:18:12;15.07;;;9.60;;
80653;SDS011;70020;45.524;10.240;2024-01-10T04:20:38;16.33;;;10.02;;
80653;SDS011;70020;45.524;10.240;2024-01-10T04:23:04;15.50;;;9.83;;
80653;SDS011;70020;45.524;10.240;2024-01-10T04:25:30;14.83;;;9.80;;
80653;SDS011;70020;45.524;10.240;2024-01-10T04:27:55;18.97;;;10.57;;
80653;SDS011;70020;45.524;10.240;2024-01-10T04:32:47;16.73;;;10.10;;
80653;SDS011;70020;45.524;10.240;2024-01-10T04:35:13;18.90;;;10.67;;
80653;SDS011;70020;45.524;10.240;2024-01-10T04:37:39;15.55;;;10.18;;
80653;SDS011;70020;45.524;10.240;2024-01-10T04:40:05;18.13;;;10.17;;
80653;SDS011;70020;45.524;10.240;2024-01-10T04:44:57;14.15;;;9.40;;
80653;SDS011;70020;45.524;10.240;2024-01-10T04:47:23;13.80;;;8.37;;
80653;SDS011;70020;45.524;10.240;2024-01-10T04:49:49;15.13;;;9.33;;
80653;SDS011;70020;45.524;10.240;2024-01-10T04:52:15;16.33;;;9.77;;
80653;SDS011;70020;45.524;10.240;2024-01-10T04:54:40;17.27;;;9.63;;
80653;SDS011;70020;45.524;10.240;2024-01-10T04:57:06;17.17;;;9.80;;
80653;SDS011;70020;45.524;10.240;2024-01-10T04:59:32;18.55;;;8.88;;
80653;SDS011;70020;45.524;10.240;2024-01-10T05:01:58;15.88;;;9.48;;
80653;SDS011;70020;45.524;10.240;2024-01-10T05:04:24;14.15;;;9.15;;
80653;SDS011;70020;45.524;10.240;2024-01-10T05:06:50;13.33;;;8.80;;
80653;SDS011;70020;45.524;10.240;2024-01-10T05:09:16;17.63;;;9.00;;
80653;SDS011;70020;45.524;10.240;2024-01-10T05:11:42;18.53;;;9.00;;
80653;SDS011;70020;45.524;10.240;2024-01-10T05:14:08;15.13;;;9.02;;
80653;SDS011;70020;45.524;10.240;2024-01-10T05:16:33;15.90;;;8.73;;
80653;SDS011;70020;45.524;10.240;2024-01-10T05:19:02;15.60;;;9.00;;
80653;SDS011;70020;45.524;10.240;2024-01-10T05:21:31;15.38;;;8.15;;
80653;SDS011;70020;45.524;10.240;2024-01-10T05:23:58;14.20;;;8.73;;
80653;SDS011;70020;45.524;10.240;2024-01-10T05:26:24;18.88;;;9.25;;
80653;SDS011;70020;45.524;10.240;2024-01-10T05:28:49;13.43;;;8.87;;
80653;SDS011;70020;45.524;10.240;2024-01-10T05:31:15;16.93;;;9.60;;
80653;SDS011;70020;45.524;10.240;2024-01-10T05:33:40;13.13;;;8.57;;
80653;SDS011;70020;45.524;10.240;2024-01-10T05:36:07;16.27;;;9.38;;
80653;SDS011;70020;45.524;10.240;2024-01-10T05:38:37;14.90;;;8.95;;
80653;SDS011;70020;45.524;10.240;2024-01-10T05:41:03;15.50;;;9.15;;
80653;SDS011;70020;45.524;10.240;2024-01-10T05:43:29;14.75;;;9.57;;
80653;SDS011;70020;45.524;10.240;2024-01-10T05:45:55;18.03;;;9.13;;
80653;SDS011;70020;45.524;10.240;2024-01-10T05:48:20;14.97;;;8.80;;
80653;SDS011;70020;45.524;10.240;2024-01-10T05:50:45;13.03;;;8.53;;
80653;SDS011;70020;45.524;10.240;2024-01-10T05:53:12;13.52;;;8.48;;
80653;SDS011;70020;45.524;10.240;2024-01-10T05:55:41;15.23;;;9.43;;
80653;SDS011;70020;45.524;10.240;2024-01-10T05:58:07;16.10;;;9.23;;
80653;SDS011;70020;45.524;10.240;2024-01-10T06:00:34;15.40;;;9.20;;
80653;SDS011;70020;45.524;10.240;2024-01-10T06:03:00;18.25;;;9.07;;
80653;SDS011;70020;45.524;10.240;2024-01-10T06:05:26;16.90;;;9.70;;
80653;SDS011;70020;45.524;10.240;2024-01-10T06:07:52;15.07;;;9.20;;
80653;SDS011;70020;45.524;10.240;2024-01-10T06:10:18;16.47;;;9.47;;
80653;SDS011;70020;45.524;10.240;2024-01-10T06:12:44;14.82;;;8.40;;
80653;SDS011;70020;45.524;10.240;2024-01-10T06:15:10;12.73;;;8.53;;
80653;SDS011;70020;45.524;10.240;2024-01-10T06:17:36;16.30;;;8.10;;
80653;SDS011;70020;45.524;10.240;2024-01-10T06:20:03;15.27;;;9.23;;
80653;SDS011;70020;45.524;10.240;2024-01-10T06:24:55;15.82;;;8.77;;
80653;SDS011;70020;45.524;10.240;2024-01-10T06:27:21;14.20;;;8.80;;
80653;SDS011;70020;45.524;10.240;2024-01-10T06:29:46;13.67;;;8.73;;
80653;SDS011;70020;45.524;10.240;2024-01-10T06:32:12;13.80;;;8.57;;
80653;SDS011;70020;45.524;10.240;2024-01-10T06:34:39;13.65;;;8.40;;
80653;SDS011;70020;45.524;10.240;2024-01-10T06:37:05;15.82;;;8.68;;
80653;SDS011;70020;45.524;10.240;2024-01-10T06:39:32;15.27;;;8.70;;
80653;SDS011;70020;45.524;10.240;2024-01-10T06:41:58;13.63;;;7.90;;
80653;SDS011;70020;45.524;10.240;2024-01-10T06:44:24;13.37;;;8.30;;
80653;SDS011;70020;45.524;10.240;2024-01-10T06:46:49;14.83;;;8.03;;
80653;SDS011;70020;45.524;10.240;2024-01-10T06:49:16;13.57;;;8.30;;
80653;SDS011;70020;45.524;10.240;2024-01-10T06:51:41;17.53;;;8.50;;
80653;SDS011;70020;45.524;10.240;2024-01-10T06:54:06;15.47;;;8.87;;
80653;SDS011;70020;45.524;10.240;2024-01-10T06:56:32;15.97;;;8.17;;
80653;SDS011;70020;45.524;10.240;2024-01-10T06:58:59;14.02;;;8.85;;
80653;SDS011;70020;45.524;10.240;2024-01-10T07:03:52;14.30;;;8.10;;
80653;SDS011;70020;45.524;10.240;2024-01-10T07:06:18;15.88;;;8.80;;
80653;SDS011;70020;45.524;10.240;2024-01-10T07:08:44;17.93;;;8.43;;
80653;SDS011;70020;45.524;10.240;2024-01-10T07:11:10;12.70;;;7.87;;
80653;SDS011;70020;45.524;10.240;2024-01-10T07:13:39;14.73;;;8.40;;
80653;SDS011;70020;45.524;10.240;2024-01-10T07:16:05;16.08;;;9.40;;
80653;SDS011;70020;45.524;10.240;2024-01-10T07:18:32;14.43;;;8.55;;
80653;SDS011;70020;45.524;10.240;2024-01-10T07:20:57;13.73;;;8.83;;
80653;SDS011;70020;45.524;10.240;2024-01-10T07:23:23;16.07;;;9.00;;
80653;SDS011;70020;45.524;10.240;2024-01-10T07:25:49;21.30;;;9.67;;
80653;SDS011;70020;45.524;10.240;2024-01-10T07:28:16;14.85;;;9.15;;
80653;SDS011;70020;45.524;10.240;2024-01-10T07:30:41;18.50;;;9.75;;
80653;SDS011;70020;45.524;10.240;2024-01-10T07:33:07;17.63;;;9.67;;
80653;SDS011;70020;45.524;10.240;2024-01-10T07:35:33;18.70;;;9.90;;
80653;SDS011;70020;45.524;10.240;2024-01-10T07:37:59;17.37;;;9.67;;
80653;SDS011;70020;45.524;10.240;2024-01-10T07:40:25;18.75;;;9.32;;
80653;SDS011;70020;45.524;10.240;2024-01-10T07:42:50;16.57;;;9.33;;
80653;SDS011;70020;45.524;10.240;2024-01-10T07:45:16;15.50;;;9.50;;
80653;SDS011;70020;45.524;10.240;2024-01-10T07:47:42;17.27;;;9.15;;
80653;SDS011;70020;45.524;10.240;2024-01-10T07:50:08;21.87;;;10.03;;
80653;SDS011;70020;45.524;10.240;2024-01-10T07:54:59;19.92;;;9.45;;
80653;SDS011;70020;45.524;10.240;2024-01-10T07:57:26;19.00;;;9.95;;
80653;SDS011;70020;45.524;10.240;2024-01-10T07:59:55;18.55;;;10.60;;
80653;SDS011;70020;45.524;10.240;2024-01-10T08:02:21;18.50;;;10.07;;
80653;SDS011;70020;45.524;10.240;2024-01-10T08:04:47;19.10;;;10.87;;
80653;SDS011;70020;45.524;10.240;2024-01-10T08:07:12;17.73;;;9.53;;
80653;SDS011;70020;45.524;10.240;2024-01-10T08:09:38;18.90;;;11.03;;
80653;SDS011;70020;45.524;10.240;2024-01-10T08:12:07;19.23;;;10.13;;
80653;SDS011;70020;45.524;10.240;2024-01-10T08:14:34;18.55;;;9.70;;
80653;SDS011;70020;45.524;10.240;2024-01-10T08:16:59;18.80;;;10.00;;
80653;SDS011;70020;45.524;10.240;2024-01-10T08:19:26;17.70;;;11.13;;
80653;SDS011;70020;45.524;10.240;2024-01-10T08:21:54;17.42;;;10.38;;
80653;SDS011;70020;45.524;10.240;2024-01-10T08:24:21;20.83;;;10.23;;
80653;SDS011;70020;45.524;10.240;2024-01-10T08:26:47;19.80;;;10.50;;
80653;SDS011;70020;45.524;10.240;2024-01-10T08:29:20;17.50;;;10.73;;
80653;SDS011;70020;45.524;10.240;2024-01-10T08:31:46;20.60;;;10.38;;
80653;SDS011;70020;45.524;10.240;2024-01-10T08:34:11;19.63;;;10.30;;
80653;SDS011;70020;45.524;10.240;2024-01-10T08:36:37;16.30;;;10.10;;
80653;SDS011;70020;45.524;10.240;2024-01-10T08:39:03;19.13;;;10.47;;
80653;SDS011;70020;45.524;10.240;2024-01-10T08:41:29;17.23;;;10.77;;
80653;SDS011;70020;45.524;10.240;2024-01-10T08:43:55;16.60;;;10.88;;
80653;SDS011;70020;45.524;10.240;2024-01-10T08:46:22;19.65;;;11.23;;
80653;SDS011;70020;45.524;10.240;2024-01-10T08:48:47;16.63;;;10.07;;
80653;SDS011;70020;45.524;10.240;2024-01-10T08:51:13;21.77;;;10.45;;
80653;SDS011;70020;45.524;10.240;2024-01-10T08:53:42;17.05;;;9.90;;
80653;SDS011;70020;45.524;10.240;2024-01-10T08:56:08;22.58;;;11.50;;
80653;SDS011;70020;45.524;10.240;2024-01-10T08:58:35;22.33;;;10.82;;
80653;SDS011;70020;45.524;10.240;2024-01-10T09:01:01;19.87;;;10.70;;
80653;SDS011;70020;45.524;10.240;2024-01-10T09:03:30;18.00;;;10.95;;
80653;SDS011;70020;45.524;10.240;2024-01-10T09:05:56;21.27;;;10.30;;
80653;SDS011;70020;45.524;10.240;2024-01-10T09:08:22;21.80;;;10.90;;
80653;SDS011;70020;45.524;10.240;2024-01-10T09:10:48;17.42;;;10.75;;
80653;SDS011;70020;45.524;10.240;2024-01-10T09:13:20;22.58;;;11.18;;
80653;SDS011;70020;45.524;10.240;2024-01-10T09:15:45;18.17;;;10.82;;
80653;SDS011;70020;45.524;10.240;2024-01-10T09:18:11;22.53;;;10.97;;
80653;SDS011;70020;45.524;10.240;2024-01-10T09:20:36;18.10;;;10.97;;
80653;SDS011;70020;45.524;10.240;2024-01-10T09:25:29;17.27;;;10.45;;
80653;SDS011;70020;45.524;10.240;2024-01-10T09:27:55;17.77;;;10.00;;
80653;SDS011;70020;45.524;10.240;2024-01-10T09:30:21;16.97;;;10.03;;
80653;SDS011;70020;45.524;10.240;2024-01-10T09:32:47;20.40;;;10.50;;
80653;SDS011;70020;45.524;10.240;2024-01-10T09:35:13;18.87;;;10.27;;
80653;SDS011;70020;45.524;10.240;2024-01-10T09:37:39;21.57;;;10.30;;
80653;SDS011;70020;45.524;10.240;2024-01-10T09:40:05;15.95;;;10.27;;
80653;SDS011;70020;45.524;10.240;2024-01-10T09:42:34;17.08;;;10.20;;
80653;SDS011;70020;45.524;10.240;2024-01-10T09:45:01;17.42;;;10.00;;
80653;SDS011;70020;45.524;10.240;2024-01-10T09:47:30;18.20;;;9.38;;
80653;SDS011;70020;45.524;10.240;2024-01-10T09:49:58;17.70;;;10.48;;
80653;SDS011;70020;45.524;10.240;2024-01-10T09:52:27;16.67;;;10.40;;
80653;SDS011;70020;45.524;10.240;2024-01-10T09:54:56;18.67;;;9.75;;
80653;SDS011;70020;45.524;10.240;2024-01-10T09:57:23;15.40;;;9.98;;
80653;SDS011;70020;45.524;10.240;2024-01-10T09:59:50;22.80;;;9.75;;
80653;SDS011;70020;45.524;10.240;2024-01-10T10:02:16;17.38;;;10.82;;
80653;SDS011;70020;45.524;10.240;2024-01-10T10:04:46;18.92;;;10.73;;
80653;SDS011;70020;45.524;10.240;2024-01-10T10:07:29;18.38;;;10.57;;
80653;SDS011;70020;45.524;10.240;2024-01-10T10:09:54;21.13;;;11.18;;
80653;SDS011;70020;45.524;10.240;2024-01-10T10:12:30;19.13;;;10.82;;
80653;SDS011;70020;45.524;10.240;2024-01-10T10:15:15;18.30;;;10.38;;
80653;SDS011;70020;45.524;10.240;2024-01-10T10:17:43;18.05;;;11.13;;
80653;SDS011;70020;45.524;10.240;2024-01-10T10:20:25;21.45;;;10.77;;
80653;SDS011;70020;45.524;10.240;2024-01-10T10:23:11;23.02;;;11.18;;
80653;SDS011;70020;45.524;10.240;2024-01-10T10:25:43;17.33;;;11.07;;
80653;SDS011;70020;45.524;10.240;2024-01-10T10:28:11;23.40;;;12.15;;
80653;SDS011;70020;45.524;10.240;2024-01-10T10:30:37;22.47;;;10.90;;
80653;SDS011;70020;45.524;10.240;2024-01-10T10:33:03;22.57;;;11.27;;
80653;SDS011;70020;45.524;10.240;2024-01-10T10:35:29;19.98;;;10.30;;
80653;SDS011;70020;45.524;10.240;2024-01-10T10:37:55;18.90;;;10.15;;
80653;SDS011;70020;45.524;10.240;2024-01-10T10:40:21;20.27;;;11.27;;
80653;SDS011;70020;45.524;10.240;2024-01-10T10:42:56;20.48;;;11.27;;
80653;SDS011;70020;45.524;10.240;2024-01-10T10:45:23;20.58;;;10.60;;
80653;SDS011;70020;45.524;10.240;2024-01-10T10:47:58;21.30;;;10.90;;
80653;SDS011;70020;45.524;10.240;2024-01-10T10:50:29;21.73;;;10.80;;
80653;SDS011;70020;45.524;10.240;2024-01-10T10:52:59;22.17;;;10.95;;
80653;SDS011;70020;45.524;10.240;2024-01-10T10:55:27;20.50;;;10.73;;
80653;SDS011;70020;45.524;10.240;2024-01-10T11:00:21;17.73;;;10.23;;
80653;SDS011;70020;45.524;10.240;2024-01-10T11:02:52;19.15;;;10.68;;
80653;SDS011;70020;45.524;10.240;2024-01-10T11:05:19;20.65;;;11.23;;
80653;SDS011;70020;45.524;10.240;2024-01-10T11:07:46;20.95;;;11.23;;
80653;SDS011;70020;45.524;10.240;2024-01-10T11:10:19;21.50;;;10.73;;
80653;SDS011;70020;45.524;10.240;2024-01-10T11:12:55;22.13;;;11.73;;
80653;SDS011;70020;45.524;10.240;2024-01-10T11:21:22;24.60;;;11.27;;
80653;SDS011;70020;45.524;10.240;2024-01-10T11:23:59;24.75;;;11.43;;
80653;SDS011;70020;45.524;10.240;2024-01-10T11:26:26;21.17;;;10.45;;
80653;SDS011;70020;45.524;10.240;2024-01-10T11:28:52;19.93;;;11.37;;
80653;SDS011;70020;45.524;10.240;2024-01-10T11:31:27;17.52;;;10.52;;
80653;SDS011;70020;45.524;10.240;2024-01-10T11:33:57;19.25;;;10.45;;
80653;SDS011;70020;45.524;10.240;2024-01-10T11:36:24;18.08;;;10.90;;
80653;SDS011;70020;45.524;10.240;2024-01-10T11:46:40;18.10;;;10.68;;
80653;SDS011;70020;45.524;10.240;2024-01-10T11:49:07;18.95;;;11.13;;
80653;SDS011;70020;45.524;10.240;2024-01-10T11:51:35;16.67;;;10.10;;
80653;SDS011;70020;45.524;10.240;2024-01-10T11:54:04;22.42;;;10.48;;
80653;SDS011;70020;45.524;10.240;2024-01-10T11:59:15;17.80;;;10.88;;
80653;SDS011;70020;45.524;10.240;2024-01-10T12:01:43;16.90;;;10.75;;
80653;SDS011;70020;45.524;10.240;2024-01-10T12:04:09;18.67;;;10.98;;
80653;SDS011;70020;45.524;10.240;2024-01-10T12:06:35;19.37;;;11.17;;
80653;SDS011;70020;45.524;10.240;2024-01-10T12:09:02;18.30;;;10.02;;
80653;SDS011;70020;45.524;10.240;2024-01-10T12:11:33;18.40;;;10.55;;
80653;SDS011;70020;45.524;10.240;2024-01-10T12:14:04;18.73;;;11.10;;
80653;SDS011;70020;45.524;10.240;2024-01-10T12:16:30;18.75;;;11.23;;
80653;SDS011;70020;45.524;10.240;2024-01-10T12:18:58;16.67;;;10.65;;
80653;SDS011;70020;45.524;10.240;2024-01-10T12:21:23;21.53;;;10.90;;
80653;SDS011;70020;45.524;10.240;2024-01-10T12:23:49;20.33;;;10.90;;
80653;SDS011;70020;45.524;10.240;2024-01-10T12:28:42;20.02;;;9.68;;
80653;SDS011;70020;45.524;10.240;2024-01-10T12:31:22;17.90;;;9.60;;
80653;SDS011;70020;45.524;10.240;2024-01-10T12:33:50;21.70;;;10.68;;
80653;SDS011;70020;45.524;10.240;2024-01-10T12:36:16;19.10;;;10.13;;
80653;SDS011;70020;45.524;10.240;2024-01-10T12:38:43;15.82;;;9.70;;
80653;SDS011;70020;45.524;10.240;2024-01-10T12:41:09;17.15;;;10.63;;
80653;SDS011;70020;45.524;10.240;2024-01-10T12:43:36;15.77;;;10.02;;
80653;SDS011;70020;45.524;10.240;2024-01-10T12:46:05;18.47;;;10.27;;
80653;SDS011;70020;45.524;10.240;2024-01-10T12:48:31;14.13;;;9.57;;
80653;SDS011;70020;45.524;10.240;2024-01-10T12:50:58;16.88;;;9.50;;
80653;SDS011;70020;45.524;10.240;2024-01-10T12:53:28;13.60;;;9.65;;
80653;SDS011;70020;45.524;10.240;2024-01-10T12:55:55;18.23;;;9.82;;
80653;SDS011;70020;45.524;10.240;2024-01-10T13:00:46;16.08;;;9.05;;
80653;SDS011;70020;45.524;10.240;2024-01-10T13:03:13;15.93;;;9.32;;
80653;SDS011;70020;45.524;10.240;2024-01-10T13:05:39;15.48;;;9.73;;
80653;SDS011;70020;45.524;10.240;2024-01-10T13:08:05;15.65;;;10.00;;
80653;SDS011;70020;45.524;10.240;2024-01-10T13:10:32;15.43;;;10.05;;
80653;SDS011;70020;45.524;10.240;2024-01-10T13:12:58;14.50;;;9.45;;
80653;SDS011;70020;45.524;10.240;2024-01-10T13:15:24;15.75;;;9.35;;
80653;SDS011;70020;45.524;10.240;2024-01-10T13:17:50;14.83;;;9.50;;
80653;SDS011;70020;45.524;10.240;2024-01-10T13:20:17;14.77;;;8.43;;
80653;SDS011;70020;45.524;10.240;2024-01-10T13:22:43;14.18;;;9.32;;
80653;SDS011;70020;45.524;10.240;2024-01-10T13:25:10;15.75;;;8.48;;
80653;SDS011;70020;45.524;10.240;2024-01-10T13:27:36;15.52;;;8.25;;
80653;SDS011;70020;45.524;10.240;2024-01-10T13:30:03;14.13;;;8.50;;
80653;SDS011;70020;45.524;10.240;2024-01-10T13:32:30;15.10;;;8.60;;
80653;SDS011;70020;45.524;10.240;2024-01-10T13:34:56;12.82;;;8.10;;
80653;SDS011;70020;45.524;10.240;2024-01-10T13:37:22;13.30;;;7.97;;
80653;SDS011;70020;45.524;10.240;2024-01-10T13:39:48;14.00;;;7.80;;
80653;SDS011;70020;45.524;10.240;2024-01-10T13:42:14;14.55;;;8.68;;
80653;SDS011;70020;45.524;10.240;2024-01-10T13:44:40;11.23;;;7.88;;
80653;SDS011;70020;45.524;10.240;2024-01-10T13:47:07;12.93;;;7.55;;
80653;SDS011;70020;45.524;10.240;2024-01-10T13:49:32;12.70;;;7.77;;
80653;SDS011;70020;45.524;10.240;2024-01-10T13:51:59;18.13;;;8.07;;
80653;SDS011;70020;45.524;10.240;2024-01-10T13:54:25;13.48;;;8.20;;
80653;SDS011;70020;45.524;10.240;2024-01-10T13:56:51;15.33;;;8.10;;
80653;SDS011;70020;45.524;10.240;2024-01-10T13:59:18;11.38;;;7.72;;
80653;SDS011;70020;45.524;10.240;2024-01-10T14:01:44;11.85;;;7.57;;
80653;SDS011;70020;45.524;10.240;2024-01-10T14:04:10;11.33;;;7.83;;
80653;SDS011;70020;45.524;10.240;2024-01-10T14:06:35;13.37;;;7.77;;
80653;SDS011;70020;45.524;10.240;2024-01-10T14:09:01;15.37;;;7.83;;
80653;SDS011;70020;45.524;10.240;2024-01-10T14:11:28;12.55;;;7.60;;
80653;SDS011;70020;45.524;10.240;2024-01-10T14:13:54;12.02;;;8.07;;
80653;SDS011;70020;45.524;10.240;2024-01-10T14:16:20;19.50;;;8.53;;
80653;SDS011;70020;45.524;10.240;2024-01-10T14:18:46;15.38;;;8.43;;
80653;SDS011;70020;45.524;10.240;2024-01-10T14:21:13;13.40;;;8.45;;
80653;SDS011;70020;45.524;10.240;2024-01-10T14:23:39;14.80;;;8.47;;
80653;SDS011;70020;45.524;10.240;2024-01-10T14:26:05;15.10;;;7.95;;
80653;SDS011;70020;45.524;10.240;2024-01-10T14:28:32;11.98;;;7.68;;
80653;SDS011;70020;45.524;10.240;2024-01-10T14:30:58;11.30;;;7.87;;
80653;SDS011;70020;45.524;10.240;2024-01-10T14:33:25;16.42;;;9.02;;
80653;SDS011;70020;45.524;10.240;2024-01-10T14:35:51;13.50;;;9.03;;
80653;SDS011;70020;45.524;10.240;2024-01-10T14:38:20;21.10;;;11.18;;
80653;SDS011;70020;45.524;10.240;2024-01-10T14:40:47;18.92;;;10.98;;
80653;SDS011;70020;45.524;10.240;2024-01-10T14:43:13;15.43;;;9.65;;
80653;SDS011;70020;45.524;10.240;2024-01-10T14:45:39;15.80;;;8.33;;
80653;SDS011;70020;45.524;10.240;2024-01-10T14:48:06;14.50;;;8.02;;
80653;SDS011;70020;45.524;10.240;2024-01-10T14:50:32;14.70;;;8.65;;
80653;SDS011;70020;45.524;10.240;2024-01-10T14:52:58;14.77;;;8.85;;
80653;SDS011;70020;45.524;10.240;2024-01-10T14:55:23;15.43;;;8.60;;
80653;SDS011;70020;45.524;10.240;2024-01-10T14:57:49;12.83;;;8.50;;
80653;SDS011;70020;45.524;10.240;2024-01-10T15:00:18;14.00;;;8.55;;
80653;SDS011;70020;45.524;10.240;2024-01-10T15:02:45;14.70;;;8.25;;
80653;SDS011;70020;45.524;10.240;2024-01-10T15:05:11;15.53;;;8.27;;
80653;SDS011;70020;45.524;10.240;2024-01-10T15:07:37;13.48;;;8.15;;
80653;SDS011;70020;45.524;10.240;2024-01-10T15:10:04;15.30;;;8.10;;